12:59
Airports
History
Links
Donate
Help keep this website running!
PayPal
Bitcoin
Information on this page is community maintained and may be outdated or inaccurate and is intended for reference only or PC simulator navigating.
Always use approved charts for navigating.
VEAT
AGARTALA
AGARTALA (VEAT)
Agartala, Tripura, India (799009)
(C)
Lat/Lng:23° 53' 13.12" N / 91° 14' 25.62" E
23.886978 / 91.240449
Elevation:46'ft 14mMSL
ID / ICAO:VEAT
Runways:1
Longest:(18-36) 2,285.3m 7,498ft Asphalt
Controlled:Yes
Distance To
Airport ID:
Airport Radio Frequencies
Tower: 122.7, 123.5
Nearby VORs <50NM
Nearby NDBs
METARUpdated 07-23-17 12:30 GMT
Altimeter: 29.50
Visibility: 2.5 statute miles
Wind: 6 knots (150°)
Temp: 27°c 81°f
Humidity: 94.3%

METAR: VEAT 231230Z 15006KT 4000 BR FEW010 SCT018 BKN100 27/26 Q0999 NOSIG

(Powered by phpweather)
Runway 18 / 36
Dimensions:2285.3 x 45.1m 7498' x 148'ft
Surface:Asphalt
Edge Lights:High intensity
Runway 18 [A]Runway 36 [B]
Heading:184°TH 004°TH
Lat:
Lng:
23° 53' 50.13"N
91° 14' 28.53"E
23° 52' 36.11"N
91° 14' 22.7"E
ALS:SALSSALS
User Notes and Comments
Google Map
Nearby Airports
(C) ZIA INTL 53.3 NM
VGZR (WX) W 266°
(C) TEJGAON 54.7 NM
VGTJ W 262°
(C) KAILASHAHAR 56.4 NM
VEKR ENE 58°
(C) OSMANY INTL 84.2 NM
VGSY NNE 27°
(C) LENGPUI 87.2 NM
VELP E 92°
(C) BARISAL 95.8 NM
VGBR SW 218°
(C) AIZAWL 99.2 NM
VEAZ E 95°
VFR Chart
Flight Planning at SkyVector.com